Time;durP1;ratioP1;P1;durP2;ratioP2;P2;SDS_P1;SDS_P2;PMS_P1;PMS_P2;Temp;Humidity;BMP_temperature;BMP_pressure;BME280_temperature;BME280_humidity;BME280_pressure;Samples;Min_cycle;Max_cycle;Signal;HPM_P1;HPM_P2
2021/07/13 00:00:31;;;;;;;5.50;3.45;;;;;;;17.03;100.00;94968.84;1018911;28;20135;-71
2021/07/13 00:01:02;;;;;;;5.55;3.55;;;;;;;17.03;100.00;94963.53;1021519;29;20046;-70
2021/07/13 00:01:32;;;;;;;6.65;3.90;;;;;;;17.02;100.00;94964.66;1014653;29;20048;-70
2021/07/13 00:02:03;;;;;;;7.50;3.40;;;;;;;17.04;100.00;94962.47;1013823;29;20028;-70
2021/07/13 00:02:33;;;;;;;8.75;3.45;;;;;;;17.06;100.00;94957.59;1014837;29;20112;-70
2021/07/13 00:03:07;;;;;;;4.18;2.97;;;;;;;17.04;100.00;94949.22;1012962;29;20089;-70
2021/07/13 00:03:37;;;;;;;4.63;3.50;;;;;;;17.07;100.00;94953.06;1018495;29;20020;-69
2021/07/13 00:04:08;;;;;;;7.32;3.53;;;;;;;17.07;100.00;94945.91;1018010;29;20043;-69
2021/07/13 00:04:38;;;;;;;7.30;4.43;;;;;;;17.08;100.00;94942.16;1018563;29;20024;-70
2021/07/13 00:05:12;;;;;;;10.13;4.22;;;;;;;17.08;100.00;94950.09;1018572;29;20024;-68
2021/07/13 00:05:42;;;;;;;6.85;3.60;;;;;;;17.04;100.00;94930.66;1018186;29;20129;-70
2021/07/13 00:06:13;;;;;;;4.95;3.88;;;;;;;17.09;100.00;94949.00;1018194;29;20024;-70
2021/07/13 00:06:43;;;;;;;6.18;3.70;;;;;;;17.09;100.00;94943.69;1019147;29;20095;-70
2021/07/13 00:07:14;;;;;;;6.00;3.83;;;;;;;17.10;100.00;94950.56;1014390;29;20039;-68
2021/07/13 00:07:45;;;;;;;5.40;4.18;;;;;;;17.02;100.00;94935.50;1011223;29;20029;-70
2021/07/13 00:08:15;;;;;;;3.83;3.38;;;;;;;17.11;100.00;94941.50;1011304;29;20115;-70
2021/07/13 00:08:51;;;;;;;8.63;4.18;;;;;;;17.10;100.00;94945.28;1011439;29;20089;-70
2021/07/13 00:09:21;;;;;;;7.82;3.95;;;;;;;17.10;100.00;94950.56;1011502;29;20025;-70
2021/07/13 00:09:52;;;;;;;5.82;3.40;;;;;;;17.09;100.00;94942.94;1012791;29;20032;-70
2021/07/13 00:10:24;;;;;;;7.90;3.72;;;;;;;17.11;100.00;94946.81;1015863;29;20040;-70
2021/07/13 00:10:54;;;;;;;6.25;3.75;;;;;;;17.12;100.00;94942.28;1021924;29;20548;-70
2021/07/13 00:11:25;;;;;;;6.03;3.83;;;;;;;17.11;100.00;94933.56;1019190;29;20024;-70
2021/07/13 00:11:56;;;;;;;9.02;4.40;;;;;;;17.11;100.00;94940.75;1019154;29;20020;-70
2021/07/13 00:12:27;;;;;;;7.13;3.90;;;;;;;17.11;100.00;94941.50;1016828;29;20032;-70
2021/07/13 00:12:57;;;;;;;8.60;3.55;;;;;;;17.10;100.00;94934.66;1019041;29;20076;-69
2021/07/13 00:13:28;;;;;;;7.43;3.83;;;;;;;17.12;100.00;94931.69;1015396;29;20036;-71
2021/07/13 00:13:58;;;;;;;7.70;4.05;;;;;;;17.05;100.00;94929.53;1015037;29;20031;-70
2021/07/13 00:14:29;;;;;;;6.03;4.22;;;;;;;17.11;100.00;94938.84;1022183;29;20047;-70
2021/07/13 00:14:59;;;;;;;6.70;4.50;;;;;;;17.11;100.00;94930.91;1015315;29;20060;-70
2021/07/13 00:15:33;;;;;;;5.43;3.72;;;;;;;17.07;100.00;94932.66;1015205;29;20513;-70
2021/07/13 00:16:03;;;;;;;4.57;3.70;;;;;;;17.13;100.00;94939.28;1015526;29;20024;-71
2021/07/13 00:16:34;;;;;;;4.90;4.07;;;;;;;17.12;100.00;94942.28;1019434;29;20051;-69
2021/07/13 00:17:07;;;;;;;6.50;3.90;;;;;;;17.11;100.00;94946.03;1022716;29;20137;-70
2021/07/13 00:17:38;;;;;;;6.72;3.83;;;;;;;17.10;100.00;94947.13;1015354;29;20513;-70
2021/07/13 00:18:08;;;;;;;7.10;4.82;;;;;;;17.10;100.00;94950.56;1013524;29;20020;-65
2021/07/13 00:18:39;;;;;;;5.57;4.13;;;;;;;17.10;100.00;94949.78;1014928;29;20024;-70
2021/07/13 00:19:09;;;;;;;5.47;3.95;;;;;;;17.04;100.00;94940.47;1015494;29;20032;-70
2021/07/13 00:19:40;;;;;;;8.10;3.85;;;;;;;17.06;100.00;94949.66;1015304;29;20081;-70
2021/07/13 00:20:10;;;;;;;4.43;3.95;;;;;;;17.09;100.00;94950.88;1015221;29;20591;-70
2021/07/13 00:20:41;;;;;;;5.28;3.95;;;;;;;17.03;100.00;94955.59;1015134;29;20035;-70
2021/07/13 00:21:11;;;;;;;5.55;4.22;;;;;;;17.09;100.00;94964.91;1014670;29;20024;-70
2021/07/13 00:21:42;;;;;;;7.35;4.20;;;;;;;17.10;100.00;94968.31;1019241;29;20556;-69
2021/07/13 00:22:12;;;;;;;6.55;4.00;;;;;;;17.09;100.00;94966.78;1018959;29;20651;-70
2021/07/13 00:22:43;;;;;;;12.43;4.68;;;;;;;17.08;100.00;94966.00;1017290;29;20047;-70
2021/07/13 00:23:13;;;;;;;5.80;4.25;;;;;;;17.10;100.00;94970.97;1023191;29;20106;-69
2021/07/13 00:23:44;;;;;;;8.70;4.70;;;;;;;17.10;100.00;94974.44;1023150;29;20039;-70
2021/07/13 00:24:14;;;;;;;5.03;4.07;;;;;;;17.09;100.00;94972.84;1018505;29;20046;-70
2021/07/13 00:24:44;;;;;;;6.22;4.60;;;;;;;17.10;100.00;94971.78;1015117;29;20061;-70
2021/07/13 00:25:15;;;;;;;5.88;4.47;;;;;;;17.04;100.00;94965.09;1015019;29;20517;-71
2021/07/13 00:25:48;;;;;;;8.13;3.92;;;;;;;17.11;100.00;94973.31;1011590;29;20541;-70
2021/07/13 00:26:19;;;;;;;7.78;4.45;;;;;;;17.12;100.00;94971.44;1015026;29;20490;-70
2021/07/13 00:26:49;;;;;;;8.25;4.03;;;;;;;17.12;100.00;94974.88;1015045;29;20036;-70
2021/07/13 00:27:19;;;;;;;6.32;4.45;;;;;;;17.12;100.00;94977.50;1015054;29;20036;-70
2021/07/13 00:27:50;;;;;;;5.68;4.30;;;;;;;17.11;100.00;94972.56;1014615;29;20039;-70
2021/07/13 00:28:20;;;;;;;5.63;4.00;;;;;;;17.13;100.00;94975.63;1015198;29;20594;-70
2021/07/13 00:28:51;;;;;;;5.28;4.18;;;;;;;17.12;100.00;94969.56;1011146;29;20033;-69
2021/07/13 00:29:21;;;;;;;7.57;4.55;;;;;;;17.12;100.00;94969.56;1010940;29;20103;-70
2021/07/13 00:29:52;;;;;;;6.05;4.18;;;;;;;17.11;100.00;94961.94;1019099;29;20103;-70
2021/07/13 00:30:25;;;;;;;6.28;4.13;;;;;;;17.15;100.00;94968.91;1015154;29;20036;-70
2021/07/13 00:30:56;;;;;;;6.93;4.07;;;;;;;17.11;100.00;94973.31;1010696;29;20498;-68
2021/07/13 00:31:26;;;;;;;9.68;4.63;;;;;;;17.14;100.00;94967.38;1003588;29;20029;-70
2021/07/13 00:31:57;;;;;;;5.05;4.28;;;;;;;17.17;100.00;94968.63;1003924;29;20037;-70
2021/07/13 00:32:27;;;;;;;4.72;3.97;;;;;;;16.99;100.00;94938.78;1007573;29;20036;-70
2021/07/13 00:32:57;;;;;;;6.28;4.05;;;;;;;17.15;100.00;94966.28;1011036;29;20037;-69
2021/07/13 00:33:28;;;;;;;4.70;4.20;;;;;;;17.15;100.00;94968.16;1022990;29;20027;-70
2021/07/13 00:33:58;;;;;;;5.95;4.00;;;;;;;17.16;100.00;94970.47;1023123;29;20037;-70
2021/07/13 00:34:29;;;;;;;6.82;4.20;;;;;;;17.09;100.00;94958.84;1021143;29;20062;-70
2021/07/13 00:34:59;;;;;;;5.30;3.70;;;;;;;17.15;100.00;94968.16;1019150;29;20060;-70
2021/07/13 00:35:30;;;;;;;4.93;3.90;;;;;;;17.16;100.00;94959.84;1019232;29;20031;-70
2021/07/13 00:36:00;;;;;;;11.23;4.72;;;;;;;17.17;100.00;94964.09;1023082;29;20105;-70
2021/07/13 00:36:31;;;;;;;7.38;3.88;;;;;;;17.18;100.00;94962.19;1014819;29;20036;-71
2021/07/13 00:37:01;;;;;;;5.30;4.03;;;;;;;17.19;100.00;94963.75;1015110;29;20036;-70
2021/07/13 00:37:35;;;;;;;6.72;3.60;;;;;;;17.20;100.00;94960.78;1010575;29;20028;-70
2021/07/13 00:38:05;;;;;;;6.22;3.78;;;;;;;17.21;100.00;94961.56;1011885;29;20052;-70
2021/07/13 00:38:36;;;;;;;6.47;3.65;;;;;;;17.18;100.00;94956.91;1015094;29;20503;-70
2021/07/13 00:39:09;;;;;;;5.75;3.40;;;;;;;17.06;100.00;94943.56;1011698;29;20037;-70
2021/07/13 00:39:42;;;;;;;4.85;3.60;;;;;;;17.23;100.00;94969.94;1016008;29;20028;-69
2021/07/13 00:40:14;;;;;;;3.70;3.40;;;;;;;17.22;100.00;94962.34;1014068;29;20032;-70
2021/07/13 00:40:45;;;;;;;7.15;3.42;;;;;;;17.22;100.00;94964.97;1024201;28;20011;-71
2021/07/13 00:41:15;;;;;;;5.38;3.42;;;;;;;17.15;100.00;94958.31;1025522;28;20019;-70
2021/07/13 00:41:47;;;;;;;5.68;4.05;;;;;;;17.22;100.00;94967.63;1019287;29;20123;-70
2021/07/13 00:42:18;;;;;;;5.57;3.53;;;;;;;17.22;100.00;94970.28;1019045;29;20058;-70
2021/07/13 00:42:50;;;;;;;6.20;4.07;;;;;;;17.22;100.00;94975.59;1019260;29;20042;-70
2021/07/13 00:43:23;;;;;;;4.45;3.40;;;;;;;17.21;100.00;94972.16;1015956;29;20019;-70
2021/07/13 00:43:53;;;;;;;6.22;3.85;;;;;;;17.18;100.00;94973.59;1019321;29;20390;-70
2021/07/13 00:44:23;;;;;;;5.10;3.70;;;;;;;17.19;100.00;94975.13;1019375;29;20462;-70
2021/07/13 00:44:54;;;;;;;6.05;3.47;;;;;;;17.20;100.00;94976.69;1016230;29;20036;-70
2021/07/13 00:45:24;;;;;;;5.60;3.30;;;;;;;17.18;100.00;94970.16;1019189;29;20028;-71
2021/07/13 00:45:55;;;;;;;8.50;3.78;;;;;;;17.18;100.00;94981.53;1019136;29;20031;-70
2021/07/13 00:46:25;;;;;;;5.93;3.65;;;;;;;17.14;100.00;94972.69;1019345;29;20116;-70
2021/07/13 00:46:56;;;;;;;4.97;3.50;;;;;;;17.14;100.00;94977.22;1019187;29;20035;-70
2021/07/13 00:47:27;;;;;;;7.72;3.67;;;;;;;17.04;100.00;94962.47;1014615;29;20028;-70
2021/07/13 00:47:57;;;;;;;8.25;3.53;;;;;;;17.13;100.00;94971.09;1018794;29;20031;-69
2021/07/13 00:48:27;;;;;;;10.50;5.28;;;;;;;17.16;100.00;94975.75;1015304;29;20028;-70
2021/07/13 00:49:03;;;;;;;4.18;3.58;;;;;;;17.14;100.00;94977.97;1011256;29;20040;-70
2021/07/13 00:49:33;;;;;;;4.20;3.42;;;;;;;17.14;100.00;94977.97;1006818;29;20062;-70
2021/07/13 00:50:06;;;;;;;7.18;3.35;;;;;;;17.16;100.00;94980.28;1010786;29;20024;-70
2021/07/13 00:50:36;;;;;;;4.43;3.60;;;;;;;17.16;100.00;94981.06;1011391;29;20119;-70
2021/07/13 00:51:09;;;;;;;7.78;3.60;;;;;;;17.15;100.00;94984.06;1013446;29;20055;-70
2021/07/13 00:51:40;;;;;;;3.40;3.10;;;;;;;17.16;100.00;94991.69;1018796;29;20031;-70
2021/07/13 00:52:10;;;;;;;8.40;3.63;;;;;;;17.17;100.00;94982.66;1019133;29;20371;-70
2021/07/13 00:52:40;;;;;;;4.95;3.85;;;;;;;17.16;100.00;94986.38;1019300;29;20046;-70
2021/07/13 00:53:11;;;;;;;4.70;3.53;;;;;;;17.13;100.00;94992.31;1018976;29;20474;-70
2021/07/13 00:53:42;;;;;;;4.35;3.72;;;;;;;17.12;100.00;94990.78;1019324;29;20475;-71
2021/07/13 00:54:12;;;;;;;4.70;3.83;;;;;;;17.09;100.00;94982.69;1019066;29;20106;-69
2021/07/13 00:54:43;;;;;;;4.93;4.03;;;;;;;17.08;100.00;94989.88;1015624;29;20115;-70
2021/07/13 00:55:13;;;;;;;7.90;4.00;;;;;;;17.06;100.00;94986.75;1014697;29;20023;-70
2021/07/13 00:55:44;;;;;;;3.90;3.50;;;;;;;17.11;100.00;94999.84;1011158;29;20098;-70
2021/07/13 00:56:15;;;;;;;4.13;3.10;;;;;;;17.09;100.00;95002.00;1019090;29;20031;-70
2021/07/13 00:56:47;;;;;;;6.47;3.78;;;;;;;17.12;100.00;95004.03;1012506;29;20033;-69
2021/07/13 00:57:20;;;;;;;4.60;3.67;;;;;;;17.08;100.00;94997.06;1020149;29;20879;-70
2021/07/13 00:57:54;;;;;;;4.50;3.67;;;;;;;17.10;100.00;94997.50;1023143;29;20076;-69
2021/07/13 00:58:25;;;;;;;7.28;2.95;;;;;;;17.00;100.00;94985.41;1022952;29;20031;-70
2021/07/13 00:58:55;;;;;;;5.40;3.40;;;;;;;17.08;100.00;94995.16;1016274;29;20051;-69
2021/07/13 00:59:25;;;;;;;6.28;3.40;;;;;;;17.08;100.00;94999.69;1014754;29;20434;-70
2021/07/13 00:59:56;;;;;;;4.20;3.05;;;;;;;17.08;100.00;94997.06;1015302;29;20028;-69
2021/07/13 01:00:27;;;;;;;5.30;3.40;;;;;;;17.08;100.00;94997.81;1014850;29;20043;-70
2021/07/13 01:00:57;;;;;;;4.60;3.08;;;;;;;17.07;100.00;94993.63;1023161;29;20015;-70
2021/07/13 01:01:28;;;;;;;4.43;3.50;;;;;;;17.10;100.00;94998.28;1023522;28;20035;-70
2021/07/13 01:01:58;;;;;;;7.53;3.88;;;;;;;17.10;100.00;94992.97;1027260;28;20519;-70
2021/07/13 01:02:29;;;;;;;6.78;3.10;;;;;;;17.10;100.00;94998.28;1026837;28;20801;-69
2021/07/13 01:03:01;;;;;;;5.38;3.20;;;;;;;17.13;100.00;94997.63;1023274;29;20035;-70
2021/07/13 01:03:32;;;;;;;5.22;3.45;;;;;;;17.15;100.00;94994.66;1019013;29;20479;-69
2021/07/13 01:04:03;;;;;;;6.97;3.50;;;;;;;17.16;100.00;94996.97;1012393;29;20111;-70
2021/07/13 01:04:34;;;;;;;3.50;3.20;;;;;;;17.17;100.00;94993.25;1011113;29;20495;-69
2021/07/13 01:05:27;;;;;;;3.35;3.03;;;;;;;17.16;100.00;94989.03;1011494;29;20028;-66
2021/07/13 01:05:58;;;;;;;7.15;3.10;;;;;;;17.17;100.00;94985.28;1017108;29;20043;-67
2021/07/13 01:06:33;;;;;;;5.05;2.88;;;;;;;17.16;100.00;94983.72;1019513;29;20031;-69
2021/07/13 01:07:21;;;;;;;5.00;3.28;;;;;;;17.17;100.00;94982.66;1015255;29;20034;-70
2021/07/13 01:08:02;;;;;;;4.57;3.10;;;;;;;17.17;100.00;94982.66;1015239;29;20409;-70
2021/07/13 01:09:03;;;;;;;4.05;3.33;;;;;;;17.16;100.00;94981.06;1019121;29;20102;-69
2021/07/13 01:09:46;;;;;;;6.82;3.50;;;;;;;17.13;100.00;94976.41;1017832;29;20032;-69
2021/07/13 01:10:36;;;;;;;5.85;3.30;;;;;;;17.12;100.00;94979.41;1016301;29;20028;-69
2021/07/13 01:11:28;;;;;;;3.25;2.88;;;;;;;17.15;100.00;94982.19;1019195;29;20015;-70
2021/07/13 01:12:06;;;;;;;5.40;3.53;;;;;;;17.15;100.00;94979.53;1017848;29;20059;-69
2021/07/13 01:12:45;;;;;;;5.28;3.40;;;;;;;17.10;100.00;94969.13;1018606;29;20031;-70
2021/07/13 01:13:22;;;;;;;5.72;3.35;;;;;;;17.17;100.00;94979.22;1022940;29;20027;-70
2021/07/13 01:14:22;;;;;;;3.60;3.25;;;;;;;17.16;100.00;94980.28;1019075;29;20441;-70
2021/07/13 01:14:54;;;;;;;3.67;3.17;;;;;;;17.09;100.00;94961.47;1013675;29;20030;-69
2021/07/13 01:15:27;;;;;;;5.07;3.50;;;;;;;17.16;100.00;94969.69;1011507;29;20029;-70
2021/07/13 01:16:06;;;;;;;6.80;2.75;;;;;;;17.14;100.00;94969.25;1013742;29;20536;-70
2021/07/13 01:16:39;;;;;;;4.00;2.92;;;;;;;17.16;100.00;94973.13;1015197;29;20127;-70
2021/07/13 01:17:12;;;;;;;3.80;3.30;;;;;;;17.15;100.00;94976.09;1010811;29;20033;-69
2021/07/13 01:17:55;;;;;;;6.75;3.30;;;;;;;17.15;100.00;94976.88;1011061;29;20033;-69
2021/07/13 01:18:29;;;;;;;4.95;3.33;;;;;;;17.14;100.00;94980.63;1014725;29;20027;-70
2021/07/13 01:19:33;;;;;;;5.20;3.30;;;;;;;17.15;100.00;94973.44;1015185;29;20032;-70
2021/07/13 01:20:34;;;;;;;7.68;3.40;;;;;;;17.14;100.00;94983.28;1010199;29;20380;-70
2021/07/13 01:21:33;;;;;;;5.68;3.13;;;;;;;17.13;100.00;94979.06;1013839;29;20103;-70
2021/07/13 01:22:10;;;;;;;4.07;3.30;;;;;;;17.11;100.00;94978.63;1022883;29;20034;-70
2021/07/13 01:22:47;;;;;;;4.32;3.50;;;;;;;17.11;100.00;94983.94;1017240;29;20091;-70
2021/07/13 01:23:34;;;;;;;5.97;3.45;;;;;;;17.11;100.00;94983.94;1023030;29;20143;-69
2021/07/13 01:24:36;;;;;;;4.18;3.15;;;;;;;17.13;100.00;94991.53;1019146;29;20019;-70
2021/07/13 01:25:24;;;;;;;5.32;3.38;;;;;;;17.12;100.00;94990.00;995244;29;20107;-70
2021/07/13 01:25:58;;;;;;;5.03;3.13;;;;;;;17.09;100.00;94988.00;1003561;29;20026;-70
2021/07/13 01:26:41;;;;;;;7.20;3.42;;;;;;;17.11;100.00;94996.41;1019061;29;20027;-70
2021/07/13 01:27:30;;;;;;;4.03;3.65;;;;;;;17.08;100.00;95000.47;1022537;28;20059;-70
2021/07/13 01:28:17;;;;;;;7.85;3.33;;;;;;;17.06;100.00;95002.66;1022545;29;20058;-70
2021/07/13 01:28:51;;;;;;;3.22;2.92;;;;;;;17.02;100.00;94996.44;1019416;29;20031;-70
2021/07/13 01:29:25;;;;;;;8.88;3.55;;;;;;;17.01;100.00;95000.22;1018468;29;20103;-70
2021/07/13 01:29:55;;;;;;;10.75;3.95;;;;;;;17.05;100.00;95003.75;1018930;29;20429;-71
2021/07/13 01:30:34;;;;;;;5.15;3.60;;;;;;;16.98;100.00;95006.16;1015300;29;20052;-66
2021/07/13 01:31:06;;;;;;;3.67;3.00;;;;;;;17.04;100.00;95009.41;1010903;29;20832;-70
2021/07/13 01:31:38;;;;;;;3.42;3.13;;;;;;;17.04;100.00;95020.78;1007393;29;20048;-70
2021/07/13 01:32:08;;;;;;;4.18;3.47;;;;;;;16.99;100.00;95009.56;1015021;29;20266;-70
2021/07/13 01:32:39;;;;;;;4.53;3.17;;;;;;;17.03;100.00;95019.19;1011161;29;20581;-70
2021/07/13 01:33:23;;;;;;;3.40;3.10;;;;;;;16.95;100.00;95012.88;1011290;29;20391;-70
2021/07/13 01:34:00;;;;;;;4.15;3.13;;;;;;;16.95;100.00;95018.16;1019027;29;20032;-70
2021/07/13 01:34:40;;;;;;;5.95;2.95;;;;;;;17.02;100.00;95025.59;1014415;29;20641;-70
2021/07/13 01:35:14;;;;;;;5.40;3.20;;;;;;;17.04;100.00;95030.59;1015222;29;20024;-70
2021/07/13 01:35:54;;;;;;;3.67;3.28;;;;;;;17.06;100.00;95026.50;1019214;29;20030;-70
2021/07/13 01:36:27;;;;;;;3.53;3.22;;;;;;;17.07;100.00;95024.63;1014688;29;20028;-71
2021/07/13 01:36:59;;;;;;;4.20;3.20;;;;;;;17.00;100.00;95021.72;1015252;29;20052;-70
2021/07/13 01:37:30;;;;;;;4.10;2.80;;;;;;;17.05;100.00;95022.31;1014397;29;20027;-70
2021/07/13 01:38:01;;;;;;;4.88;3.22;;;;;;;17.07;100.00;95028.09;1012227;29;20517;-70
2021/07/13 01:38:38;;;;;;;4.03;3.28;;;;;;;17.08;100.00;95024.34;1003663;29;20041;-70
2021/07/13 01:39:09;;;;;;;4.28;3.15;;;;;;;17.10;100.00;95010.75;1007285;29;20020;-70
2021/07/13 01:39:39;;;;;;;5.15;2.95;;;;;;;17.12;100.00;95008.56;1008588;29;20468;-70
2021/07/13 01:40:10;;;;;;;3.65;3.28;;;;;;;17.12;100.00;95006.69;1014943;29;20020;-70
2021/07/13 01:40:45;;;;;;;5.95;3.45;;;;;;;17.14;100.00;95004.50;1018943;29;20023;-70
2021/07/13 01:41:18;;;;;;;4.28;3.20;;;;;;;17.17;100.00;95003.09;1013437;29;20016;-70
2021/07/13 01:41:50;;;;;;;4.20;3.20;;;;;;;17.18;100.00;95000.09;1011039;29;20028;-69
2021/07/13 01:42:21;;;;;;;4.55;3.20;;;;;;;17.18;100.00;94989.50;1012295;29;20087;-70
2021/07/13 01:42:51;;;;;;;6.32;3.20;;;;;;;17.14;100.00;94988.59;1006891;29;20772;-69
2021/07/13 01:43:24;;;;;;;6.93;3.33;;;;;;;17.21;100.00;94988.06;1010337;29;20029;-69
2021/07/13 01:43:55;;;;;;;4.22;3.40;;;;;;;17.17;100.00;94984.53;1009249;29;20044;-69
2021/07/13 01:44:25;;;;;;;3.15;2.90;;;;;;;17.23;100.00;94985.09;1012832;29;20031;-69
2021/07/13 01:44:56;;;;;;;4.57;3.55;;;;;;;17.22;100.00;94979.00;1007337;29;20037;-70
2021/07/13 01:45:26;;;;;;;6.47;3.40;;;;;;;17.20;100.00;94978.53;1018574;29;20124;-70
2021/07/13 01:45:57;;;;;;;6.93;3.90;;;;;;;17.15;100.00;94971.56;1022564;29;20027;-70
2021/07/13 01:46:28;;;;;;;5.00;3.50;;;;;;;17.09;100.00;94954.31;1014350;29;20494;-70
2021/07/13 01:46:58;;;;;;;4.47;3.30;;;;;;;17.20;100.00;94966.09;1018885;29;20035;-70
2021/07/13 01:47:31;;;;;;;4.65;3.45;;;;;;;17.17;100.00;94950.06;1017308;29;20032;-70
2021/07/13 01:48:03;;;;;;;3.72;3.35;;;;;;;17.17;100.00;94950.81;1018393;29;20449;-69
2021/07/13 01:48:33;;;;;;;5.95;3.20;;;;;;;17.20;100.00;94944.88;1014168;29;20020;-70
2021/07/13 01:49:03;;;;;;;8.77;3.67;;;;;;;17.18;100.00;94931.16;1018717;29;20024;-70
2021/07/13 01:49:34;;;;;;;7.30;3.42;;;;;;;17.22;100.00;94930.50;1018978;29;20027;-70
2021/07/13 01:50:06;;;;;;;5.38;4.00;;;;;;;17.25;100.00;94921.91;1014181;29;20047;-70
2021/07/13 01:50:36;;;;;;;4.82;3.40;;;;;;;17.24;100.00;94915.84;1014793;29;20032;-71
2021/07/13 01:51:07;;;;;;;4.65;3.38;;;;;;;17.23;100.00;94916.91;1015215;29;20107;-70
2021/07/13 01:51:38;;;;;;;3.83;3.38;;;;;;;17.26;100.00;94910.97;1018613;29;20052;-70
2021/07/13 01:52:08;;;;;;;4.72;3.58;;;;;;;17.28;100.00;94910.66;1018690;29;20106;-70
2021/07/13 01:52:39;;;;;;;7.28;3.80;;;;;;;17.30;100.00;94901.25;1017708;29;20028;-68
2021/07/13 01:53:10;;;;;;;5.57;3.28;;;;;;;17.30;100.00;94905.78;1014594;29;20032;-69
2021/07/13 01:53:40;;;;;;;4.50;3.05;;;;;;;17.29;100.00;94898.94;1014817;29;20044;-70
2021/07/13 01:54:11;;;;;;;4.60;3.53;;;;;;;17.27;100.00;94893.97;1021569;29;20030;-70
2021/07/13 01:54:41;;;;;;;7.13;3.70;;;;;;;17.26;100.00;94895.06;1022487;29;20031;-70
2021/07/13 01:55:12;;;;;;;4.57;3.70;;;;;;;17.23;100.00;94894.94;1013847;29;20039;-70
2021/07/13 01:55:43;;;;;;;6.05;3.45;;;;;;;17.19;100.00;94892.16;1014667;29;20509;-70
2021/07/13 01:56:14;;;;;;;6.22;3.75;;;;;;;17.18;100.00;94894.03;1014667;29;20028;-70
2021/07/13 01:56:45;;;;;;;3.53;3.22;;;;;;;17.18;100.00;94898.56;1011030;29;20025;-71
2021/07/13 01:57:16;;;;;;;3.63;3.03;;;;;;;17.16;100.00;94896.22;1013190;29;20149;-69
2021/07/13 01:57:46;;;;;;;3.20;2.90;;;;;;;17.16;100.00;94898.88;1014644;29;20040;-70
2021/07/13 01:58:24;;;;;;;4.20;3.30;;;;;;;17.15;100.00;94899.22;1014847;29;20024;-70
2021/07/13 01:58:55;;;;;;;3.50;3.20;;;;;;;17.14;100.00;94903.75;1007751;29;20541;-70
2021/07/13 01:59:26;;;;;;;4.65;3.15;;;;;;;17.10;100.00;94897.56;1004268;29;20021;-70
2021/07/13 01:59:57;;;;;;;4.05;2.75;;;;;;;17.14;100.00;94909.06;1004223;29;20133;-70
2021/07/13 02:00:31;;;;;;;5.47;3.40;;;;;;;17.15;100.00;94905.28;1010775;29;20132;-70
2021/07/13 02:01:13;;;;;;;9.32;3.20;;;;;;;17.11;100.00;94904.41;1014870;29;20028;-70
2021/07/13 02:01:44;;;;;;;4.22;3.00;;;;;;;17.13;100.00;94912.78;1007310;29;20033;-71
2021/07/13 02:02:15;;;;;;;3.90;3.50;;;;;;;17.15;100.00;94909.81;1010813;29;20533;-69
2021/07/13 02:02:45;;;;;;;6.40;3.35;;;;;;;17.15;100.00;94910.59;1012617;29;20060;-70
2021/07/13 02:03:16;;;;;;;4.63;3.67;;;;;;;17.14;100.00;94913.59;1019534;29;20023;-70
2021/07/13 02:03:50;;;;;;;4.43;3.30;;;;;;;17.14;100.00;94916.25;1014586;29;20056;-70
2021/07/13 02:04:21;;;;;;;6.72;3.55;;;;;;;17.11;100.00;94901.75;1015051;29;20027;-70
2021/07/13 02:04:51;;;;;;;6.47;3.75;;;;;;;17.13;100.00;94907.47;1014356;29;20031;-70
2021/07/13 02:05:22;;;;;;;6.43;3.70;;;;;;;17.15;100.00;94915.13;1018776;29;20018;-70
2021/07/13 02:05:55;;;;;;;3.90;3.25;;;;;;;17.06;100.00;94914.41;1014866;29;20025;-70
2021/07/13 02:06:25;;;;;;;3.85;3.25;;;;;;;17.08;100.00;94915.66;1010523;29;20017;-70
2021/07/13 02:06:59;;;;;;;5.07;3.50;;;;;;;17.05;100.00;94921.59;1010707;29;20032;-70
2021/07/13 02:07:31;;;;;;;5.40;2.90;;;;;;;17.09;100.00;94922.50;1010277;29;20042;-70
2021/07/13 02:08:03;;;;;;;3.47;3.17;;;;;;;17.06;100.00;94920.47;1015678;29;20622;-70
2021/07/13 02:08:39;;;;;;;4.32;3.15;;;;;;;17.06;100.00;94928.44;1014108;29;20028;-70
2021/07/13 02:09:12;;;;;;;6.70;3.40;;;;;;;17.07;100.00;94922.06;1014628;29;20072;-70
2021/07/13 02:09:43;;;;;;;3.50;3.15;;;;;;;17.05;100.00;94915.53;1014474;29;20036;-70
2021/07/13 02:10:13;;;;;;;4.28;3.20;;;;;;;17.06;100.00;94919.72;1010952;29;20025;-70
2021/07/13 02:10:43;;;;;;;7.00;3.75;;;;;;;17.04;100.00;94909.44;1014871;29;20024;-70
2021/07/13 02:11:17;;;;;;;11.10;4.15;;;;;;;17.07;100.00;94918.59;1018542;29;20723;-70
2021/07/13 02:11:47;;;;;;;12.60;3.40;;;;;;;16.99;100.00;94906.22;1010861;29;20080;-70
2021/07/13 02:12:17;;;;;;;3.60;3.15;;;;;;;17.06;100.00;94915.19;1010859;29;20067;-70
2021/07/13 02:12:48;;;;;;;3.60;3.30;;;;;;;17.05;100.00;94916.28;1015049;29;20434;-70
2021/07/13 02:13:19;;;;;;;3.15;2.70;;;;;;;17.00;100.00;94908.56;1016321;29;20048;-70
2021/07/13 02:13:49;;;;;;;4.03;3.53;;;;;;;17.04;100.00;94917.41;1018731;29;20390;-70
2021/07/13 02:14:19;;;;;;;4.97;3.63;;;;;;;17.07;100.00;94922.06;1018571;29;20092;-71
2021/07/13 02:14:50;;;;;;;4.93;3.35;;;;;;;17.06;100.00;94919.72;1018437;29;20088;-70
2021/07/13 02:15:20;;;;;;;4.30;3.10;;;;;;;17.09;100.00;94925.16;1014951;29;20020;-70
2021/07/13 02:15:51;;;;;;;8.63;3.50;;;;;;;17.08;100.00;94926.25;1018676;29;20039;-69
2021/07/13 02:16:21;;;;;;;3.17;2.88;;;;;;;17.10;100.00;94928.56;1018787;29;20027;-71
2021/07/13 02:16:52;;;;;;;4.60;3.17;;;;;;;17.12;100.00;94931.69;1021744;28;20039;-70
2021/07/13 02:17:25;;;;;;;7.10;2.97;;;;;;;17.13;100.00;94931.34;1024805;28;20027;-70
2021/07/13 02:17:55;;;;;;;3.20;2.88;;;;;;;17.08;100.00;94920.94;1026803;28;20527;-70
2021/07/13 02:18:26;;;;;;;4.13;3.00;;;;;;;17.10;100.00;94918.75;1015465;29;20095;-70
2021/07/13 02:18:57;;;;;;;3.70;3.00;;;;;;;17.09;100.00;94922.50;1010510;29;20032;-70
2021/07/13 02:19:27;;;;;;;3.42;3.00;;;;;;;17.08;100.00;94920.94;1010903;29;20025;-70
2021/07/13 02:19:59;;;;;;;11.77;3.30;;;;;;;17.13;100.00;94926.03;1011860;29;20021;-70
2021/07/13 02:20:29;;;;;;;7.18;2.90;;;;;;;17.14;100.00;94924.97;1018560;29;20027;-70
2021/07/13 02:21:03;;;;;;;6.20;3.10;;;;;;;17.12;100.00;94924.50;1018886;29;20477;-71
2021/07/13 02:21:34;;;;;;;6.20;3.13;;;;;;;17.13;100.00;94920.75;1014068;29;20071;-69
2021/07/13 02:22:05;;;;;;;5.05;2.92;;;;;;;17.16;100.00;94924.63;1015583;29;20027;-70
2021/07/13 02:22:36;;;;;;;5.75;3.10;;;;;;;17.14;100.00;94929.50;1014646;29;20063;-70
2021/07/13 02:23:07;;;;;;;4.13;3.28;;;;;;;17.16;100.00;94933.34;1010933;29;20048;-70
2021/07/13 02:23:37;;;;;;;5.80;3.28;;;;;;;17.18;100.00;94931.16;1010411;29;20031;-70
2021/07/13 02:24:08;;;;;;;4.45;3.00;;;;;;;17.17;100.00;94934.91;1010765;29;20549;-70
2021/07/13 02:24:38;;;;;;;5.25;3.35;;;;;;;17.17;100.00;94928.84;1011081;29;20029;-70
2021/07/13 02:25:09;;;;;;;3.95;3.33;;;;;;;17.11;100.00;94925.59;1012467;29;20039;-70
2021/07/13 02:25:40;;;;;;;3.42;3.13;;;;;;;17.16;100.00;94937.88;1018620;29;20462;-70
2021/07/13 02:26:24;;;;;;;4.95;3.08;;;;;;;17.17;100.00;94934.91;1014696;29;20024;-70
2021/07/13 02:27:00;;;;;;;5.45;3.25;;;;;;;17.10;100.00;94926.72;1016124;29;20473;-70
2021/07/13 02:27:31;;;;;;;2.97;2.70;;;;;;;17.16;100.00;94930.69;1013935;29;20106;-71
2021/07/13 02:28:19;;;;;;;5.57;2.78;;;;;;;17.15;100.00;94931.81;1014712;29;20032;-71
2021/07/13 02:28:59;;;;;;;5.40;3.20;;;;;;;17.16;100.00;94927.28;1017976;29;20051;-70
2021/07/13 02:29:37;;;;;;;3.20;2.90;;;;;;;17.12;100.00;94915.78;1022102;28;20409;-70
2021/07/13 02:30:08;;;;;;;7.65;3.15;;;;;;;17.10;100.00;94920.63;1014123;29;20036;-70
2021/07/13 02:30:42;;;;;;;8.82;3.55;;;;;;;17.13;100.00;94918.09;1018598;29;20030;-70
2021/07/13 02:31:24;;;;;;;3.83;3.50;;;;;;;17.16;100.00;94909.50;1022538;29;20031;-71
2021/07/13 02:32:06;;;;;;;5.45;3.28;;;;;;;17.15;100.00;94910.59;1022138;29;20035;-70
2021/07/13 02:32:50;;;;;;;4.22;3.20;;;;;;;17.10;100.00;94908.16;1010817;29;20029;-70
2021/07/13 02:33:25;;;;;;;3.30;3.00;;;;;;;17.10;100.00;94908.16;1014889;29;20024;-70
2021/07/13 02:34:00;;;;;;;5.22;3.15;;;;;;;17.08;100.00;94907.69;1014766;29;20028;-70
2021/07/13 02:34:31;;;;;;;6.88;2.92;;;;;;;17.07;100.00;94906.16;1014861;29;20028;-70